createdAt,value
2016-07-14T00:00:50.044Z,15.24
2016-07-14T00:01:50.015Z,15.19
2016-07-14T00:02:50.004Z,15.31
2016-07-14T00:03:49.972Z,15.25
2016-07-14T00:04:49.952Z,15.19
2016-07-14T00:05:49.929Z,15.17
2016-07-14T00:06:49.908Z,15.21
2016-07-14T00:07:49.888Z,15.19
2016-07-14T00:08:49.861Z,15.17
2016-07-14T00:09:49.842Z,15.15
2016-07-14T00:10:49.820Z,15.19
2016-07-14T00:11:49.799Z,15.21
2016-07-14T00:12:49.778Z,15.18
2016-07-14T00:13:49.752Z,15.06
2016-07-14T00:14:49.736Z,15.1
2016-07-14T00:15:49.713Z,15.04
2016-07-14T00:16:49.689Z,15.02
2016-07-14T00:17:49.668Z,15.15
2016-07-14T00:18:49.645Z,15.1
2016-07-14T00:19:49.622Z,15.04
2016-07-14T00:20:49.600Z,15.02
2016-07-14T00:21:49.581Z,15
2016-07-14T00:22:49.566Z,15.02
2016-07-14T00:23:49.532Z,14.94
2016-07-14T00:24:49.512Z,14.94
2016-07-14T00:25:49.488Z,14.99
2016-07-14T00:26:49.467Z,14.96
2016-07-14T00:27:49.446Z,14.94
2016-07-14T00:28:49.422Z,14.91
2016-07-14T00:29:49.402Z,14.94
2016-07-14T00:30:49.378Z,14.91
2016-07-14T00:31:49.359Z,14.88
2016-07-14T00:32:49.337Z,14.88
2016-07-14T00:33:49.312Z,14.91
2016-07-14T00:34:49.293Z,14.85
2016-07-14T00:35:49.271Z,14.86
2016-07-14T00:36:49.244Z,14.86
2016-07-14T00:37:49.226Z,14.82
2016-07-14T00:38:49.201Z,14.82
2016-07-14T00:39:49.181Z,14.81
2016-07-14T00:40:49.157Z,14.84
2016-07-14T00:41:49.134Z,14.78
2016-07-14T00:42:49.112Z,14.78
2016-07-14T00:43:49.088Z,14.78
2016-07-14T00:44:49.068Z,14.73
2016-07-14T00:45:49.048Z,14.73
2016-07-14T00:46:49.023Z,14.7
2016-07-14T00:47:49.003Z,14.73
2016-07-14T00:48:48.979Z,14.69
2016-07-14T00:49:48.958Z,14.6
2016-07-14T00:50:48.933Z,14.68
2016-07-14T00:51:48.927Z,14.62
2016-07-14T00:52:48.893Z,14.66
2016-07-14T00:53:48.865Z,14.63
2016-07-14T00:54:48.846Z,14.58
2016-07-14T00:55:48.822Z,14.63
2016-07-14T00:56:48.802Z,14.51
2016-07-14T00:57:48.779Z,14.51
2016-07-14T00:58:48.756Z,14.51
2016-07-14T00:59:48.733Z,14.55
2016-07-14T01:00:48.706Z,14.5
2016-07-14T01:01:48.688Z,14.5
2016-07-14T01:02:48.664Z,14.47
2016-07-14T01:03:48.652Z,14.5
2016-07-14T01:04:48.618Z,14.45
2016-07-14T01:05:48.594Z,14.36
2016-07-14T01:06:48.576Z,14.41
2016-07-14T01:07:48.551Z,14.41
2016-07-14T01:08:48.530Z,14.4
2016-07-14T01:09:48.509Z,14.37
2016-07-14T01:10:48.483Z,14.36
2016-07-14T01:11:48.462Z,14.37
2016-07-14T01:12:48.446Z,14.35
2016-07-14T01:13:48.419Z,14.33
2016-07-14T01:14:48.395Z,14.3
2016-07-14T01:15:48.369Z,14.37
2016-07-14T01:16:48.349Z,14.36
2016-07-14T01:17:48.325Z,14.32
2016-07-14T01:18:48.304Z,14.33
2016-07-14T01:19:48.281Z,14.3
2016-07-14T01:20:48.257Z,14.25
2016-07-14T01:21:48.239Z,14.2
2016-07-14T01:22:48.214Z,14.25
2016-07-14T01:23:48.190Z,14.23
2016-07-14T01:24:48.166Z,14.23
2016-07-14T01:25:48.144Z,14.2
2016-07-14T01:26:48.123Z,14.22
2016-07-14T01:27:48.096Z,14.2
2016-07-14T01:28:48.079Z,14.14
2016-07-14T01:29:48.052Z,14.15
2016-07-14T01:30:48.027Z,14.11
2016-07-14T01:31:48.008Z,14.14
2016-07-14T01:32:47.983Z,14.1
2016-07-14T01:33:47.960Z,14.1
2016-07-14T01:34:47.935Z,14.05
2016-07-14T01:35:47.916Z,14.1
2016-07-14T01:36:47.892Z,14.08
2016-07-14T01:37:47.869Z,14.03
2016-07-14T01:38:47.852Z,13.97
2016-07-14T01:39:47.824Z,14.05
2016-07-14T01:40:47.800Z,13.99
2016-07-14T01:41:47.775Z,13.95
2016-07-14T01:42:47.761Z,14.05
2016-07-14T01:43:47.732Z,14.04
2016-07-14T01:44:47.709Z,14
2016-07-14T01:45:47.685Z,13.95
2016-07-14T01:46:47.664Z,13.99
2016-07-14T01:47:47.643Z,13.95
2016-07-14T01:48:47.613Z,13.95
2016-07-14T01:49:47.593Z,13.96
2016-07-14T01:50:47.569Z,13.95
2016-07-14T01:51:47.547Z,13.9
2016-07-14T01:52:47.523Z,13.86
2016-07-14T01:53:47.504Z,13.93
2016-07-14T01:54:47.477Z,13.93
2016-07-14T01:55:47.454Z,13.89
2016-07-14T01:56:47.433Z,13.86
2016-07-14T01:57:47.405Z,13.83
2016-07-14T01:58:47.385Z,13.77
2016-07-14T01:59:47.358Z,13.79
2016-07-14T02:00:47.338Z,13.72
2016-07-14T02:01:47.318Z,13.89
2016-07-14T02:02:47.292Z,13.79
2016-07-14T02:03:47.270Z,13.75
2016-07-14T02:04:47.243Z,13.79
2016-07-14T02:05:47.222Z,13.71
2016-07-14T02:06:47.197Z,13.75
2016-07-14T02:07:47.175Z,13.7
2016-07-14T02:08:47.155Z,13.67
2016-07-14T02:09:47.128Z,13.68
2016-07-14T02:10:47.106Z,13.7
2016-07-14T02:11:47.087Z,13.75
2016-07-14T02:12:47.067Z,13.7
2016-07-14T02:13:47.039Z,13.71
2016-07-14T02:14:47.017Z,13.7
2016-07-14T02:15:46.989Z,13.65
2016-07-14T02:16:46.974Z,13.74
2016-07-14T02:17:46.944Z,13.71
2016-07-14T02:18:46.925Z,13.6
2016-07-14T02:19:46.905Z,13.7
2016-07-14T02:20:46.875Z,13.65
2016-07-14T02:21:46.857Z,13.6
2016-07-14T02:22:46.826Z,13.72
2016-07-14T02:23:47.499Z,13.74
2016-07-14T02:24:46.789Z,13.57
2016-07-14T02:25:46.759Z,13.6
2016-07-14T02:26:46.735Z,13.7
2016-07-14T02:27:46.711Z,13.63
2016-07-14T02:28:46.688Z,13.57
2016-07-14T02:29:46.664Z,13.54
2016-07-14T02:30:46.642Z,13.6
2016-07-14T02:31:46.619Z,13.62
2016-07-14T02:32:46.597Z,13.56
2016-07-14T02:33:46.572Z,13.65
2016-07-14T02:34:46.547Z,13.63
2016-07-14T02:35:46.526Z,13.63
2016-07-14T02:36:46.498Z,13.59
2016-07-14T02:37:46.479Z,13.68
2016-07-14T02:38:46.458Z,13.63
2016-07-14T02:39:46.443Z,13.59
2016-07-14T02:40:46.407Z,13.62
2016-07-14T02:41:46.382Z,13.56
2016-07-14T02:42:46.360Z,13.57
2016-07-14T02:43:46.336Z,13.59
2016-07-14T02:44:46.310Z,13.62
2016-07-14T02:45:46.293Z,13.54
2016-07-14T02:46:46.264Z,13.54
2016-07-14T02:47:46.258Z,13.5
2016-07-14T02:48:46.219Z,13.5
2016-07-14T02:49:46.207Z,13.46
2016-07-14T02:50:46.171Z,13.44
2016-07-14T02:51:46.150Z,13.47
2016-07-14T02:52:46.129Z,13.44
2016-07-14T02:53:46.102Z,13.5
2016-07-14T02:54:46.081Z,13.49
2016-07-14T02:55:46.059Z,13.46
2016-07-14T02:56:46.034Z,13.47
2016-07-14T02:57:46.010Z,13.41
2016-07-14T02:58:45.985Z,13.39
2016-07-14T02:59:45.962Z,13.44
2016-07-14T03:00:45.941Z,13.39
2016-07-14T03:01:45.918Z,13.38
2016-07-14T03:02:45.893Z,13.37
2016-07-14T03:03:45.869Z,13.38
2016-07-14T03:04:45.844Z,13.44
2016-07-14T03:05:45.821Z,13.39
2016-07-14T03:06:45.801Z,13.38
2016-07-14T03:07:45.776Z,13.28
2016-07-14T03:08:45.751Z,13.31
2016-07-14T03:09:45.735Z,13.31
2016-07-14T03:10:45.707Z,13.35
2016-07-14T03:11:45.690Z,13.28
2016-07-14T03:12:45.653Z,13.33
2016-07-14T03:13:45.632Z,13.3
2016-07-14T03:14:45.610Z,13.38
2016-07-14T03:15:45.585Z,13.27
2016-07-14T03:16:45.564Z,13.3
2016-07-14T03:17:45.537Z,13.27
2016-07-14T03:18:45.518Z,13.22
2016-07-14T03:19:45.488Z,13.23
2016-07-14T03:20:45.469Z,13.22
2016-07-14T03:21:45.454Z,13.15
2016-07-14T03:22:45.419Z,13.19
2016-07-14T03:23:45.397Z,13.18
2016-07-14T03:24:45.374Z,13.18
2016-07-14T03:25:45.350Z,13.23
2016-07-14T03:26:45.332Z,13.12
2016-07-14T03:27:45.304Z,13.19
2016-07-14T03:28:45.281Z,13.16
2016-07-14T03:29:45.255Z,13.11
2016-07-14T03:30:45.234Z,13.13
2016-07-14T03:31:45.213Z,13.05
2016-07-14T03:32:45.183Z,13.04
2016-07-14T03:33:45.163Z,13.04
2016-07-14T03:34:45.134Z,13.04
2016-07-14T03:35:45.120Z,13.05
2016-07-14T03:36:45.090Z,13.08
2016-07-14T03:37:45.065Z,13.03
2016-07-14T03:38:45.045Z,13.05
2016-07-14T03:39:45.024Z,13.01
2016-07-14T03:40:44.995Z,13.03
2016-07-14T03:41:44.970Z,13.05
2016-07-14T03:42:44.950Z,13.01
2016-07-14T03:43:44.922Z,13.03
2016-07-14T03:44:44.899Z,13.08
2016-07-14T03:45:44.878Z,13.03
2016-07-14T03:46:44.851Z,13.01
2016-07-14T03:47:44.832Z,13.01
2016-07-14T03:48:44.807Z,13.03
2016-07-14T03:49:44.782Z,13.04
2016-07-14T03:50:44.758Z,13.03
2016-07-14T03:51:44.736Z,13.04
2016-07-14T03:52:44.713Z,13.01
2016-07-14T03:53:44.687Z,13.03
2016-07-14T03:54:44.663Z,13.11
2016-07-14T03:55:44.645Z,13.05
2016-07-14T03:56:44.618Z,13.04
2016-07-14T03:57:44.591Z,13.05
2016-07-14T03:58:44.570Z,13.04
2016-07-14T03:59:44.543Z,13.04
2016-07-14T04:00:44.523Z,13.03
2016-07-14T04:01:44.496Z,13.04
2016-07-14T04:02:44.489Z,13.04
2016-07-14T04:03:44.450Z,13.04
2016-07-14T04:04:44.428Z,13.05
2016-07-14T04:05:44.406Z,13.15
2016-07-14T04:06:44.379Z,13.16
2016-07-14T04:07:44.357Z,13.08
2016-07-14T04:08:44.340Z,13.04
2016-07-14T04:09:44.309Z,13.04
2016-07-14T04:10:44.290Z,13.13
2016-07-14T04:11:44.260Z,13.03
2016-07-14T04:12:44.240Z,13.05
2016-07-14T04:13:44.216Z,13.13
2016-07-14T04:14:44.186Z,13.12
2016-07-14T04:15:44.168Z,13.16
2016-07-14T04:16:44.146Z,13.12
2016-07-14T04:17:44.121Z,13.18
2016-07-14T04:18:44.106Z,13.15
2016-07-14T04:19:44.075Z,13.16
2016-07-14T04:20:44.055Z,13.15
2016-07-14T04:21:44.034Z,13.13
2016-07-14T04:22:44.004Z,13.16
2016-07-14T04:23:43.981Z,13.23
2016-07-14T04:24:43.955Z,13.31
2016-07-14T04:25:43.936Z,13.25
2016-07-14T04:26:43.912Z,13.28
2016-07-14T04:27:43.890Z,13.27
2016-07-14T04:28:44.558Z,13.31
2016-07-14T04:29:43.840Z,13.31
2016-07-14T04:30:43.819Z,13.41
2016-07-14T04:31:43.792Z,13.3
2016-07-14T04:32:43.775Z,13.35
2016-07-14T04:33:43.747Z,13.38
2016-07-14T04:34:44.518Z,13.38
2016-07-14T04:35:43.703Z,13.42
2016-07-14T04:36:43.680Z,13.47
2016-07-14T04:37:43.652Z,13.41
2016-07-14T04:38:43.647Z,13.38
2016-07-14T04:39:43.608Z,13.41
2016-07-14T04:40:43.587Z,13.41
2016-07-14T04:41:43.563Z,13.41
2016-07-14T04:42:43.538Z,13.41
2016-07-14T04:43:43.517Z,13.35
2016-07-14T04:44:43.491Z,13.39
2016-07-14T04:45:43.470Z,13.42
2016-07-14T04:46:43.449Z,13.47
2016-07-14T04:47:43.434Z,13.52
2016-07-14T04:48:43.402Z,13.47
2016-07-14T04:49:43.379Z,13.47
2016-07-14T04:50:43.365Z,13.56
2016-07-14T04:51:43.335Z,13.59
2016-07-14T04:52:43.311Z,13.6
2016-07-14T04:53:43.285Z,13.62
2016-07-14T04:54:43.262Z,13.63
2016-07-14T04:55:43.241Z,13.63
2016-07-14T04:56:43.215Z,13.7
2016-07-14T04:57:43.195Z,13.7
2016-07-14T04:58:44.095Z,13.75
2016-07-14T04:59:43.152Z,13.79
2016-07-14T05:00:43.133Z,13.9
2016-07-14T05:01:43.109Z,13.95
2016-07-14T05:02:43.081Z,13.99
2016-07-14T05:03:43.071Z,14.03
2016-07-14T05:04:43.036Z,14.05
2016-07-14T05:05:43.016Z,14.11
2016-07-14T05:06:42.997Z,14.15
2016-07-14T05:07:42.971Z,14.23
2016-07-14T05:08:42.949Z,14.17
2016-07-14T05:09:42.925Z,14.2
2016-07-14T05:10:42.907Z,14.3
2016-07-14T05:11:42.892Z,14.26
2016-07-14T05:12:42.862Z,14.29
2016-07-14T05:13:42.841Z,14.41
2016-07-14T05:14:42.817Z,14.33
2016-07-14T05:15:42.798Z,14.36
2016-07-14T05:16:42.773Z,14.4
2016-07-14T05:17:42.750Z,14.53
2016-07-14T05:18:42.733Z,14.44
2016-07-14T05:19:42.710Z,14.44
2016-07-14T05:20:42.688Z,14.6
2016-07-14T05:21:42.668Z,14.59
2016-07-14T05:22:42.645Z,14.59
2016-07-14T05:23:42.634Z,14.66
2016-07-14T05:24:42.604Z,14.69
2016-07-14T05:25:42.584Z,14.68
2016-07-14T05:26:42.559Z,14.81
2016-07-14T05:27:42.543Z,14.85
2016-07-14T05:28:42.520Z,14.85
2016-07-14T05:29:42.498Z,14.92
2016-07-14T05:30:42.477Z,14.97
2016-07-14T05:31:42.453Z,15.04
2016-07-14T05:32:42.434Z,15.18
2016-07-14T05:33:42.412Z,15.22
2016-07-14T05:34:42.395Z,15.19
2016-07-14T05:35:42.370Z,15.21
2016-07-14T05:36:42.354Z,15.19
2016-07-14T05:37:42.337Z,15.17
2016-07-14T05:38:42.314Z,15.18
2016-07-14T05:39:42.291Z,15.17
2016-07-14T05:40:42.271Z,15.21
2016-07-14T05:41:42.248Z,15.25
2016-07-14T05:42:42.229Z,15.33
2016-07-14T05:43:42.210Z,15.37
2016-07-14T05:44:42.199Z,15.36
2016-07-14T05:45:42.166Z,15.42
2016-07-14T05:46:42.149Z,15.47
2016-07-14T05:47:42.128Z,15.59
2016-07-14T05:48:42.106Z,15.62
2016-07-14T05:49:42.089Z,15.72
2016-07-14T05:50:42.069Z,15.82
2016-07-14T05:51:42.048Z,15.95
2016-07-14T05:52:42.027Z,16.01
2016-07-14T05:53:42.004Z,16
2016-07-14T05:54:41.989Z,16.08
2016-07-14T05:55:41.974Z,16.08
2016-07-14T05:56:41.948Z,16.24
2016-07-14T05:57:41.932Z,16.33
2016-07-14T05:58:41.909Z,16.33
2016-07-14T05:59:41.894Z,16.35
2016-07-14T06:00:41.872Z,16.39
2016-07-14T06:01:41.851Z,16.58
2016-07-14T06:02:41.837Z,16.61
2016-07-14T06:03:41.811Z,16.71
2016-07-14T06:04:41.797Z,16.83
2016-07-14T06:05:41.780Z,16.89
2016-07-14T06:06:41.756Z,16.96
2016-07-14T06:07:41.742Z,16.91
2016-07-14T06:08:41.726Z,16.97
2016-07-14T06:09:41.705Z,16.99
2016-07-14T06:10:41.694Z,16.94
2016-07-14T06:11:41.668Z,16.89
2016-07-14T06:12:41.652Z,16.87
2016-07-14T06:13:41.633Z,16.78
2016-07-14T06:14:41.611Z,16.81
2016-07-14T06:15:41.595Z,16.84
2016-07-14T06:16:41.583Z,16.89
2016-07-14T06:17:41.555Z,16.87
2016-07-14T06:18:41.541Z,16.96
2016-07-14T06:19:41.521Z,16.9
2016-07-14T06:20:41.503Z,16.97
2016-07-14T06:21:41.489Z,17.02
2016-07-14T06:22:41.469Z,16.99
2016-07-14T06:23:41.462Z,17.04
2016-07-14T06:25:41.415Z,17.23
2016-07-14T06:26:41.418Z,17.22
2016-07-14T06:27:41.382Z,17.19
2016-07-14T06:28:41.361Z,17.29
2016-07-14T06:29:41.349Z,17.31
2016-07-14T06:30:41.339Z,17.38
2016-07-14T06:31:41.321Z,17.42
2016-07-14T06:32:41.298Z,17.36
2016-07-14T06:33:41.280Z,17.49
2016-07-14T06:34:41.270Z,17.48
2016-07-14T06:35:41.249Z,17.56
2016-07-14T06:36:41.231Z,17.59
2016-07-14T06:37:41.214Z,17.51
2016-07-14T06:38:41.198Z,17.51
2016-07-14T06:39:41.198Z,17.59
2016-07-14T06:40:41.166Z,17.52
2016-07-14T06:41:41.152Z,17.63
2016-07-14T06:42:41.133Z,17.71
2016-07-14T06:43:41.118Z,17.72
2016-07-14T06:44:41.100Z,17.59
2016-07-14T06:45:41.083Z,17.49
2016-07-14T06:46:41.072Z,17.44
2016-07-14T06:47:41.051Z,17.38
2016-07-14T06:48:41.038Z,17.36
2016-07-14T06:49:41.020Z,17.39
2016-07-14T06:50:41.002Z,17.38
2016-07-14T06:51:40.985Z,17.39
2016-07-14T06:52:40.971Z,17.46
2016-07-14T06:53:40.952Z,17.39
2016-07-14T06:54:40.938Z,17.34
2016-07-14T06:55:40.920Z,17.33
2016-07-14T06:56:40.902Z,17.38
2016-07-14T06:57:40.888Z,17.44
2016-07-14T06:58:40.869Z,17.45
2016-07-14T06:59:40.864Z,17.45
2016-07-14T07:00:40.850Z,17.45
2016-07-14T07:01:40.821Z,17.56
2016-07-14T07:02:40.809Z,17.48
2016-07-14T07:03:40.791Z,17.56
2016-07-14T07:04:40.775Z,17.48
2016-07-14T07:05:40.759Z,17.57
2016-07-14T07:06:40.747Z,17.48
2016-07-14T07:07:40.739Z,17.54
2016-07-14T07:08:40.719Z,17.65
2016-07-14T07:09:40.699Z,17.76
2016-07-14T07:10:40.682Z,17.83
2016-07-14T07:11:40.668Z,17.95
2016-07-14T07:12:40.658Z,18
2016-07-14T07:13:40.637Z,18.2
2016-07-14T07:14:40.624Z,18.23
2016-07-14T07:15:40.608Z,18.4
2016-07-14T07:16:40.595Z,18.44
2016-07-14T07:17:40.579Z,18.53
2016-07-14T07:18:40.564Z,18.53
2016-07-14T07:19:40.555Z,18.58
2016-07-14T07:20:40.542Z,18.63
2016-07-14T07:21:40.529Z,18.58
2016-07-14T07:22:40.511Z,18.58
2016-07-14T07:23:40.493Z,18.7
2016-07-14T07:24:40.483Z,18.71
2016-07-14T07:25:40.470Z,18.62
2016-07-14T07:26:40.452Z,18.65
2016-07-14T07:27:40.440Z,18.7
2016-07-14T07:28:40.428Z,18.7
2016-07-14T07:29:40.410Z,18.7
2016-07-14T07:30:40.398Z,18.73
2016-07-14T07:31:40.386Z,18.71
2016-07-14T07:32:40.367Z,18.74
2016-07-14T07:33:40.354Z,18.77
2016-07-14T07:34:40.340Z,18.86
2016-07-14T07:35:40.324Z,18.86
2016-07-14T07:36:40.312Z,18.78
2016-07-14T07:37:40.298Z,18.73
2016-07-14T07:38:40.283Z,18.62
2016-07-14T07:39:40.269Z,18.65
2016-07-14T07:40:40.254Z,18.65
2016-07-14T07:41:40.238Z,18.65
2016-07-14T07:42:40.222Z,18.8
2016-07-14T07:43:40.204Z,18.83
2016-07-14T07:44:40.190Z,18.78
2016-07-14T07:45:40.172Z,18.59
2016-07-14T07:46:40.160Z,18.53
2016-07-14T07:47:40.153Z,18.5
2016-07-14T07:48:40.126Z,18.56
2016-07-14T07:49:40.111Z,18.68
2016-07-14T07:50:40.095Z,18.68
2016-07-14T07:51:40.081Z,18.84
2016-07-14T07:52:40.066Z,18.95
2016-07-14T07:53:40.050Z,18.99
2016-07-14T07:54:40.035Z,19.08
2016-07-14T07:55:40.023Z,19.29
2016-07-14T07:56:40.007Z,19.41
2016-07-14T07:57:39.997Z,19.41
2016-07-14T07:58:39.982Z,19.47
2016-07-14T07:59:39.970Z,19.48
2016-07-14T08:00:39.953Z,19.63
2016-07-14T08:01:39.954Z,19.85
2016-07-14T08:02:39.929Z,19.96
2016-07-14T08:03:39.918Z,19.95
2016-07-14T08:04:39.907Z,20
2016-07-14T08:05:39.899Z,19.89
2016-07-14T08:06:39.892Z,19.71
2016-07-14T08:07:40.664Z,19.66
2016-07-14T08:08:39.857Z,19.58
2016-07-14T08:09:39.840Z,19.49
2016-07-14T08:10:39.826Z,19.48
2016-07-14T08:11:39.815Z,19.39
2016-07-14T08:12:39.800Z,19.37
2016-07-14T08:13:39.788Z,19.33
2016-07-14T08:14:39.774Z,19.24
2016-07-14T08:15:39.757Z,19.31
2016-07-14T08:16:39.746Z,19.44
2016-07-14T08:17:39.747Z,19.52
2016-07-14T08:18:39.717Z,19.73
2016-07-14T08:19:39.702Z,19.76
2016-07-14T08:20:39.688Z,19.81
2016-07-14T08:21:39.676Z,19.89
2016-07-14T08:22:39.660Z,19.92
2016-07-14T08:23:39.648Z,19.82
2016-07-14T08:24:39.636Z,19.81
2016-07-14T08:25:39.623Z,19.64
2016-07-14T08:26:39.610Z,19.59
2016-07-14T08:27:39.595Z,19.49
2016-07-14T08:28:39.585Z,19.48
2016-07-14T08:29:39.567Z,19.45
2016-07-14T08:30:39.561Z,19.54
2016-07-14T08:31:39.540Z,19.67
2016-07-14T08:32:39.534Z,19.92
2016-07-14T08:33:39.513Z,19.95
2016-07-14T08:34:39.498Z,19.96
2016-07-14T08:35:39.486Z,19.91
2016-07-14T08:36:39.473Z,19.94
2016-07-14T08:37:39.563Z,20.02
2016-07-14T08:38:39.450Z,20.24
2016-07-14T08:39:39.435Z,20.32
2016-07-14T08:40:40.120Z,20.28
2016-07-14T08:41:39.410Z,20.37
2016-07-14T08:42:39.398Z,20.39
2016-07-14T08:43:39.393Z,20.41
2016-07-14T08:44:39.374Z,20.26
2016-07-14T08:45:39.378Z,20.04
2016-07-14T08:46:39.352Z,19.94
2016-07-14T08:47:39.341Z,19.76
2016-07-14T08:48:39.331Z,19.7
2016-07-14T08:49:39.314Z,19.63
2016-07-14T08:50:39.302Z,19.59
2016-07-14T08:51:39.982Z,19.64
2016-07-14T08:52:39.270Z,19.55
2016-07-14T08:53:39.259Z,19.64
2016-07-14T08:54:39.245Z,19.7
2016-07-14T08:55:39.227Z,19.66
2016-07-14T08:56:39.214Z,19.73
2016-07-14T08:57:39.201Z,19.69
2016-07-14T08:58:39.183Z,19.7
2016-07-14T08:59:39.173Z,19.94
2016-07-14T09:00:39.156Z,20.09
2016-07-14T09:01:39.145Z,20.14
2016-07-14T09:02:39.133Z,20.24
2016-07-14T09:03:39.117Z,20.28
2016-07-14T09:04:39.107Z,20.24
2016-07-14T09:05:39.091Z,20.22
2016-07-14T09:06:39.080Z,20.11
2016-07-14T09:07:39.067Z,19.95
2016-07-14T09:08:39.055Z,19.89
2016-07-14T09:09:39.039Z,19.76
2016-07-14T09:10:39.022Z,19.67
2016-07-14T09:11:39.018Z,19.51
2016-07-14T09:12:38.997Z,19.54
2016-07-14T09:13:38.992Z,19.63
2016-07-14T09:14:39.664Z,19.74
2016-07-14T09:15:38.956Z,19.94
2016-07-14T09:16:38.944Z,20.06
2016-07-14T09:17:38.928Z,20.13
2016-07-14T09:18:38.914Z,20.29
2016-07-14T09:19:38.903Z,20.4
2016-07-14T09:20:38.891Z,20.43
2016-07-14T09:21:38.879Z,20.52
2016-07-14T09:22:38.867Z,20.62
2016-07-14T09:23:38.858Z,20.66
2016-07-14T09:24:38.856Z,20.75
2016-07-14T09:25:38.832Z,20.9
2016-07-14T09:26:38.829Z,21.03
2016-07-14T09:27:38.815Z,21.12
2016-07-14T09:28:38.807Z,21.12
2016-07-14T09:29:38.794Z,21.21
2016-07-14T09:30:38.785Z,21.43
2016-07-14T09:31:38.778Z,21.51
2016-07-14T09:32:38.764Z,21.7
2016-07-14T09:33:38.757Z,21.75
2016-07-14T09:34:38.749Z,21.66
2016-07-14T09:35:38.734Z,21.67
2016-07-14T09:36:38.729Z,21.52
2016-07-14T09:37:38.716Z,21.37
2016-07-14T09:38:38.705Z,21.37
2016-07-14T09:39:38.697Z,21.35
2016-07-14T09:40:38.686Z,21.11
2016-07-14T09:41:38.682Z,21.05
2016-07-14T09:42:38.663Z,20.93
2016-07-14T09:43:38.656Z,20.93
2016-07-14T09:44:38.649Z,21
2016-07-14T09:45:38.631Z,21.02
2016-07-14T09:46:38.626Z,21.02
2016-07-14T09:47:38.606Z,20.93
2016-07-14T09:48:38.594Z,20.84
2016-07-14T09:49:38.585Z,20.67
2016-07-14T09:50:38.577Z,20.7
2016-07-14T09:51:38.559Z,20.58
2016-07-14T09:52:38.543Z,20.52
2016-07-14T09:53:38.530Z,20.51
2016-07-14T09:54:38.513Z,20.51
2016-07-14T09:55:38.501Z,20.37
2016-07-14T09:56:38.495Z,20.18
2016-07-14T09:57:38.472Z,20.1
2016-07-14T09:58:39.958Z,19.99
2016-07-14T09:59:38.460Z,19.91
2016-07-14T10:00:38.431Z,19.81
2016-07-14T10:01:38.420Z,19.69
2016-07-14T10:02:38.400Z,19.49
2016-07-14T10:03:38.385Z,19.36
2016-07-14T10:04:38.370Z,19.37
2016-07-14T10:05:39.085Z,19.31
2016-07-14T10:06:38.338Z,19.29
2016-07-14T10:07:38.321Z,19.27
2016-07-14T10:08:38.302Z,19.27
2016-07-14T10:09:38.290Z,19.27
2016-07-14T10:10:38.275Z,19.4
2016-07-14T10:11:38.272Z,19.36
2016-07-14T10:12:38.247Z,19.41
2016-07-14T10:13:38.232Z,19.44
2016-07-14T10:14:38.216Z,19.47
2016-07-14T10:15:38.198Z,19.56
2016-07-14T10:16:38.179Z,19.7
2016-07-14T10:17:38.164Z,19.73
2016-07-14T10:18:38.155Z,19.92
2016-07-14T10:19:38.133Z,19.89
2016-07-14T10:20:38.122Z,19.79
2016-07-14T10:21:38.110Z,19.89
2016-07-14T10:22:38.092Z,19.89
2016-07-14T10:23:38.085Z,20.07
2016-07-14T10:24:38.061Z,20.16
2016-07-14T10:25:38.061Z,20.36
2016-07-14T10:26:38.039Z,20.48
2016-07-14T10:27:38.020Z,20.58
2016-07-14T10:28:38.011Z,20.59
2016-07-14T10:29:37.996Z,20.47
2016-07-14T10:30:37.982Z,20.51
2016-07-14T10:31:37.974Z,20.37
2016-07-14T10:32:37.959Z,20.19
2016-07-14T10:33:37.965Z,20.18
2016-07-14T10:34:37.927Z,20.14
2016-07-14T10:35:37.920Z,20.19
2016-07-14T10:36:37.897Z,20.21
2016-07-14T10:37:37.885Z,20.31
2016-07-14T10:38:37.872Z,20.48
2016-07-14T10:39:37.856Z,20.59
2016-07-14T10:40:37.850Z,20.6
2016-07-14T10:41:37.833Z,20.72
2016-07-14T10:42:37.815Z,20.75
2016-07-14T10:43:37.808Z,20.85
2016-07-14T10:44:37.792Z,20.88
2016-07-14T10:45:37.779Z,20.81
2016-07-14T10:46:37.815Z,20.9
2016-07-14T10:47:37.762Z,21
2016-07-14T10:48:37.740Z,20.92
2016-07-14T10:49:37.721Z,20.92
2016-07-14T10:50:37.714Z,20.93
2016-07-14T10:51:37.703Z,20.84
2016-07-14T10:52:37.691Z,20.67
2016-07-14T10:53:37.677Z,20.63
2016-07-14T10:54:37.652Z,20.55
2016-07-14T10:55:37.641Z,20.44
2016-07-14T10:56:37.626Z,20.55
2016-07-14T10:57:37.616Z,20.41
2016-07-14T10:58:37.599Z,20.48
2016-07-14T10:59:37.580Z,20.43
2016-07-14T11:00:37.570Z,20.34
2016-07-14T11:01:37.554Z,20.16
2016-07-14T11:02:37.540Z,20.11
2016-07-14T11:03:37.528Z,20.07
2016-07-14T11:04:37.511Z,19.95
2016-07-14T11:05:37.496Z,19.96
2016-07-14T11:06:37.481Z,19.94
2016-07-14T11:07:37.467Z,19.95
2016-07-14T11:08:37.449Z,19.91
2016-07-14T11:09:37.434Z,19.96
2016-07-14T11:10:37.419Z,19.96
2016-07-14T11:11:37.409Z,20
2016-07-14T11:12:37.389Z,20.03
2016-07-14T11:13:37.371Z,20.1
2016-07-14T11:14:37.352Z,20.1
2016-07-14T11:15:37.348Z,20.22
2016-07-14T11:16:38.017Z,20.28
2016-07-14T11:17:37.310Z,20.31
2016-07-14T11:18:37.292Z,20.39
2016-07-14T11:19:37.277Z,20.39
2016-07-14T11:20:37.270Z,20.4
2016-07-14T11:21:37.250Z,20.39
2016-07-14T11:22:37.236Z,20.41
2016-07-14T11:23:37.222Z,20.51
2016-07-14T11:24:37.206Z,20.58
2016-07-14T11:25:37.194Z,20.66
2016-07-14T11:26:37.183Z,20.84
2016-07-14T11:27:37.169Z,21.03
2016-07-14T11:28:37.154Z,21.14
2016-07-14T11:29:37.136Z,21.12
2016-07-14T11:30:37.129Z,21.22
2016-07-14T11:31:37.114Z,21.22
2016-07-14T11:32:37.097Z,21.07
2016-07-14T11:33:37.087Z,21
2016-07-14T11:34:37.074Z,20.93
2016-07-14T11:35:37.134Z,20.81
2016-07-14T11:36:37.046Z,20.67
2016-07-14T11:37:37.041Z,20.62
2016-07-14T11:38:37.012Z,20.43
2016-07-14T11:39:36.998Z,20.26
2016-07-14T11:40:36.985Z,20.16
2016-07-14T11:41:37.006Z,19.94
2016-07-14T11:42:36.958Z,19.82
2016-07-14T11:43:36.939Z,19.7
2016-07-14T11:44:36.950Z,19.69
2016-07-14T11:45:36.907Z,19.69
2016-07-14T11:46:37.609Z,19.66
2016-07-14T11:47:36.876Z,19.59
2016-07-14T11:48:36.860Z,19.49
2016-07-14T11:49:36.844Z,19.51
2016-07-14T11:50:36.828Z,19.49
2016-07-14T11:51:36.827Z,19.52
2016-07-14T11:52:36.797Z,19.52
2016-07-14T11:53:36.779Z,19.4
2016-07-14T11:54:37.456Z,19.52
2016-07-14T11:55:36.745Z,19.48
2016-07-14T11:56:36.737Z,19.52
2016-07-14T11:57:36.715Z,19.54
2016-07-14T11:58:36.700Z,19.51
2016-07-14T11:59:36.680Z,19.49
2016-07-14T12:00:36.668Z,19.54
2016-07-14T12:01:36.650Z,19.51
2016-07-14T12:02:36.634Z,19.51
2016-07-14T12:03:36.619Z,19.49
2016-07-14T12:04:36.599Z,19.49
2016-07-14T12:05:36.585Z,19.49
2016-07-14T12:06:36.567Z,19.52
2016-07-14T12:08:36.542Z,19.47
2016-07-14T12:09:37.225Z,19.4
2016-07-14T12:10:36.509Z,19.39
2016-07-14T12:11:36.489Z,19.49
2016-07-14T12:12:37.246Z,19.49
2016-07-14T12:13:36.457Z,19.34
2016-07-14T12:14:36.440Z,19.47
2016-07-14T12:15:36.428Z,19.34
2016-07-14T12:16:36.441Z,19.49
2016-07-14T12:17:36.391Z,19.4
2016-07-14T12:18:36.389Z,19.4
2016-07-14T12:19:36.363Z,19.34
2016-07-14T12:20:36.343Z,19.34
2016-07-14T12:21:36.329Z,19.4
2016-07-14T12:22:36.316Z,19.4
2016-07-14T12:23:36.291Z,19.47
2016-07-14T12:24:36.280Z,19.45
2016-07-14T12:25:36.260Z,19.31
2016-07-14T12:26:36.247Z,19.47
2016-07-14T12:27:36.237Z,19.52
2016-07-14T12:28:36.214Z,19.66
2016-07-14T12:29:36.199Z,19.76
2016-07-14T12:30:36.183Z,19.77
2016-07-14T12:31:36.171Z,19.67
2016-07-14T12:32:36.152Z,19.82
2016-07-14T12:33:36.140Z,19.86
2016-07-14T12:34:36.122Z,19.95
2016-07-14T12:35:36.108Z,20.06
2016-07-14T12:36:36.093Z,20.26
2016-07-14T12:37:36.080Z,20.37
2016-07-14T12:38:36.061Z,20.51
2016-07-14T12:39:36.050Z,20.52
2016-07-14T12:40:36.034Z,20.69
2016-07-14T12:41:36.018Z,20.81
2016-07-14T12:42:36.004Z,20.85
2016-07-14T12:43:36.721Z,20.87
2016-07-14T12:44:36.672Z,21.02
2016-07-14T12:45:35.964Z,21.06
2016-07-14T12:46:35.949Z,21.2
2016-07-14T12:47:35.937Z,21.42
2016-07-14T12:48:35.925Z,21.57
2016-07-14T12:49:35.910Z,21.5
2016-07-14T12:50:35.899Z,21.57
2016-07-14T12:51:36.598Z,21.67
2016-07-14T12:52:35.875Z,21.67
2016-07-14T12:53:35.860Z,21.7
2016-07-14T12:54:35.847Z,21.85
2016-07-14T12:55:35.839Z,21.93
2016-07-14T12:56:35.821Z,22.02
2016-07-14T12:57:35.809Z,22.15
2016-07-14T12:58:35.802Z,22.2